createdAt,value
2019-05-23T00:00:26.585Z,0.00
2019-05-23T00:01:26.577Z,0.00
2019-05-23T00:02:26.577Z,0.00
2019-05-23T00:03:26.555Z,0.00
2019-05-23T00:04:26.568Z,0.00
2019-05-23T00:05:26.535Z,0.00
2019-05-23T00:06:26.626Z,0.00
2019-05-23T00:07:26.503Z,0.00
2019-05-23T00:08:26.504Z,0.00
2019-05-23T00:09:26.488Z,0.00
2019-05-23T00:10:26.521Z,0.00
2019-05-23T00:11:26.466Z,0.00
2019-05-23T00:12:26.451Z,0.00
2019-05-23T00:13:26.441Z,0.00
2019-05-23T00:14:26.435Z,0.00
2019-05-23T00:15:26.417Z,0.00
2019-05-23T00:16:26.433Z,0.00
2019-05-23T00:17:26.393Z,0.00
2019-05-23T00:18:26.384Z,0.00
2019-05-23T00:19:26.375Z,0.00
2019-05-23T00:20:26.363Z,0.00
2019-05-23T00:21:26.357Z,0.00
2019-05-23T00:22:26.539Z,0.00
2019-05-23T00:23:26.327Z,0.00
2019-05-23T00:24:26.329Z,0.00
2019-05-23T00:25:26.305Z,0.00
2019-05-23T00:26:26.296Z,0.00
2019-05-23T00:27:26.279Z,0.00
2019-05-23T00:28:26.268Z,0.00
2019-05-23T00:29:26.263Z,0.00
2019-05-23T00:30:26.265Z,0.00
2019-05-23T00:31:26.238Z,0.00
2019-05-23T00:32:26.220Z,0.00
2019-05-23T00:33:26.207Z,0.00
2019-05-23T00:34:26.263Z,0.00
2019-05-23T00:35:26.190Z,0.00
2019-05-23T00:36:26.202Z,0.00
2019-05-23T00:37:26.170Z,0.00
2019-05-23T00:38:26.156Z,0.00
2019-05-23T00:39:26.149Z,0.00
2019-05-23T00:40:26.131Z,0.00
2019-05-23T00:41:26.127Z,0.00
2019-05-23T00:42:26.132Z,0.00
2019-05-23T00:43:26.102Z,0.00
2019-05-23T00:44:26.086Z,0.00
2019-05-23T00:45:26.116Z,0.00
2019-05-23T00:46:26.087Z,0.00
2019-05-23T00:47:26.060Z,0.00
2019-05-23T00:48:26.044Z,0.00
2019-05-23T00:49:26.076Z,0.00
2019-05-23T00:50:26.023Z,0.00
2019-05-23T00:51:26.011Z,0.00
2019-05-23T00:52:25.993Z,0.00
2019-05-23T00:53:25.989Z,0.00
2019-05-23T00:54:25.982Z,0.00
2019-05-23T00:55:25.982Z,0.00
2019-05-23T00:56:25.948Z,0.00
2019-05-23T00:57:25.942Z,0.00
2019-05-23T00:58:25.942Z,0.00
2019-05-23T00:59:27.746Z,0.00
2019-05-23T01:00:25.924Z,0.00
2019-05-23T01:01:25.894Z,0.00
2019-05-23T01:02:25.885Z,0.00
2019-05-23T01:03:25.866Z,0.00
2019-05-23T01:04:25.856Z,0.00
2019-05-23T01:05:25.852Z,0.00
2019-05-23T01:06:25.860Z,0.00
2019-05-23T01:07:25.828Z,0.00
2019-05-23T01:08:25.810Z,0.00
2019-05-23T01:09:25.795Z,0.00
2019-05-23T01:10:25.792Z,0.00
2019-05-23T01:11:25.784Z,0.00
2019-05-23T01:12:25.838Z,0.00
2019-05-23T01:13:25.769Z,0.00
2019-05-23T01:14:25.749Z,0.00
2019-05-23T01:15:25.730Z,0.00
2019-05-23T01:16:25.718Z,0.00
2019-05-23T01:17:25.714Z,0.00
2019-05-23T01:18:25.704Z,0.00
2019-05-23T01:19:25.720Z,0.00
2019-05-23T01:20:25.681Z,0.00
2019-05-23T01:21:25.670Z,0.00
2019-05-23T01:22:25.654Z,0.00
2019-05-23T01:23:25.652Z,0.00
2019-05-23T01:24:25.628Z,0.00
2019-05-23T01:25:25.640Z,0.00
2019-05-23T01:26:25.607Z,0.00
2019-05-23T01:27:25.596Z,0.00
2019-05-23T01:28:25.588Z,0.00
2019-05-23T01:29:25.594Z,0.00
2019-05-23T01:30:25.566Z,0.00
2019-05-23T01:31:25.575Z,0.00
2019-05-23T01:32:25.542Z,0.00
2019-05-23T01:33:25.529Z,0.00
2019-05-23T01:34:25.529Z,0.00
2019-05-23T01:35:25.501Z,0.00
2019-05-23T01:36:25.497Z,0.00
2019-05-23T01:37:25.494Z,0.00
2019-05-23T01:38:25.497Z,0.00
2019-05-23T01:39:25.631Z,0.00
2019-05-23T01:40:25.457Z,0.00
2019-05-23T01:41:25.441Z,0.00
2019-05-23T01:42:25.433Z,0.00
2019-05-23T01:43:25.419Z,0.00
2019-05-23T01:44:25.405Z,0.00
2019-05-23T01:45:25.419Z,0.00
2019-05-23T01:46:25.383Z,0.00
2019-05-23T01:47:25.379Z,0.00
2019-05-23T01:48:25.369Z,0.00
2019-05-23T01:49:25.351Z,0.00
2019-05-23T01:50:25.350Z,0.00
2019-05-23T01:51:25.331Z,0.00
2019-05-23T01:52:25.366Z,0.00
2019-05-23T01:53:25.305Z,0.00
2019-05-23T01:54:25.297Z,0.00
2019-05-23T01:55:25.291Z,0.00
2019-05-23T01:56:25.277Z,0.00
2019-05-23T01:57:25.270Z,0.00
2019-05-23T01:58:25.249Z,0.00
2019-05-23T01:59:25.263Z,0.00
2019-05-23T02:00:25.229Z,0.00
2019-05-23T02:01:25.225Z,0.00
2019-05-23T02:02:25.221Z,0.00
2019-05-23T02:03:25.204Z,0.00
2019-05-23T02:04:25.212Z,0.00
2019-05-23T02:05:25.206Z,0.00
2019-05-23T02:06:25.186Z,0.00
2019-05-23T02:07:25.148Z,0.00
2019-05-23T02:08:25.142Z,0.00
2019-05-23T02:09:25.131Z,0.00
2019-05-23T02:10:25.119Z,0.00
2019-05-23T02:11:25.107Z,0.00
2019-05-23T02:12:25.117Z,0.00
2019-05-23T02:13:25.089Z,0.00
2019-05-23T02:14:25.132Z,0.00
2019-05-23T02:15:25.068Z,0.00
2019-05-23T02:16:25.055Z,0.00
2019-05-23T02:17:25.048Z,0.00
2019-05-23T02:18:25.032Z,4.00
2019-05-23T02:19:25.020Z,4.00
2019-05-23T02:20:25.051Z,4.00
2019-05-23T02:21:24.994Z,4.00
2019-05-23T02:22:24.989Z,0.00
2019-05-23T02:23:24.975Z,4.00
2019-05-23T02:24:24.962Z,4.00
2019-05-23T02:25:24.954Z,4.00
2019-05-23T02:26:24.952Z,8.00
2019-05-23T02:27:24.935Z,4.00
2019-05-23T02:28:24.926Z,4.00
2019-05-23T02:29:24.906Z,8.00
2019-05-23T02:30:34.747Z,8.00
2019-05-23T02:31:25.906Z,8.00
2019-05-23T02:32:24.882Z,8.00
2019-05-23T02:33:24.870Z,12.00
2019-05-23T02:34:24.878Z,12.00
2019-05-23T02:35:24.862Z,12.00
2019-05-23T02:36:24.834Z,12.00
2019-05-23T02:37:24.832Z,12.00
2019-05-23T02:38:24.828Z,12.00
2019-05-23T02:39:24.802Z,16.00
2019-05-23T02:40:24.808Z,20.00
2019-05-23T02:41:24.786Z,20.00
2019-05-23T02:42:24.770Z,24.00
2019-05-23T02:43:24.759Z,28.00
2019-05-23T02:44:24.768Z,32.00
2019-05-23T02:45:24.735Z,32.00
2019-05-23T02:46:24.743Z,40.00
2019-05-23T02:47:24.722Z,44.00
2019-05-23T02:48:24.696Z,48.00
2019-05-23T02:49:24.695Z,56.00
2019-05-23T02:50:24.678Z,64.00
2019-05-23T02:51:24.669Z,68.00
2019-05-23T02:52:24.676Z,76.00
2019-05-23T02:53:24.643Z,84.00
2019-05-23T02:54:24.636Z,92.00
2019-05-23T02:55:24.633Z,104.00
2019-05-23T02:56:24.614Z,112.00
2019-05-23T02:57:24.602Z,124.00
2019-05-23T02:58:24.612Z,140.00
2019-05-23T02:59:24.585Z,152.00
2019-05-23T03:00:24.570Z,168.00
2019-05-23T03:01:24.564Z,180.00
2019-05-23T03:02:24.549Z,196.00
2019-05-23T03:03:24.535Z,216.00
2019-05-23T03:04:24.548Z,228.00
2019-05-23T03:05:24.555Z,248.00
2019-05-23T03:06:24.499Z,264.00
2019-05-23T03:07:24.498Z,280.00
2019-05-23T03:08:24.482Z,300.00
2019-05-23T03:09:24.468Z,324.00
2019-05-23T03:10:24.454Z,348.00
2019-05-23T03:11:24.469Z,372.00
2019-05-23T03:12:25.417Z,400.00
2019-05-23T03:13:24.433Z,424.00
2019-05-23T03:14:24.413Z,448.00
2019-05-23T03:15:24.426Z,476.00
2019-05-23T03:16:24.389Z,500.00
2019-05-23T03:17:24.377Z,528.00
2019-05-23T03:18:24.382Z,552.00
2019-05-23T03:19:24.372Z,580.00
2019-05-23T03:20:24.347Z,608.00
2019-05-23T03:21:24.351Z,636.00
2019-05-23T03:22:24.352Z,664.00
2019-05-23T03:23:24.317Z,692.00
2019-05-23T03:24:24.309Z,720.00
2019-05-23T03:25:24.291Z,748.00
2019-05-23T03:26:24.279Z,772.00
2019-05-23T03:27:24.275Z,800.00
2019-05-23T03:28:24.279Z,828.00
2019-05-23T03:29:24.263Z,856.00
2019-05-23T03:30:24.254Z,884.00
2019-05-23T03:31:30.749Z,916.00
2019-05-23T03:32:25.230Z,952.00
2019-05-23T03:33:24.223Z,992.00
2019-05-23T03:34:24.201Z,1048.00
2019-05-23T03:35:24.210Z,1112.00
2019-05-23T03:36:24.334Z,1168.00
2019-05-23T03:37:24.160Z,1232.00
2019-05-23T03:38:24.146Z,1292.00
2019-05-23T03:39:24.137Z,1352.00
2019-05-23T03:40:24.322Z,1412.00
2019-05-23T03:41:24.141Z,1472.00
2019-05-23T03:42:24.120Z,1536.00
2019-05-23T03:43:24.189Z,1616.00
2019-05-23T03:44:24.084Z,1688.00
2019-05-23T03:45:24.074Z,1756.00
2019-05-23T03:46:24.065Z,1820.00
2019-05-23T03:47:24.058Z,1868.00
2019-05-23T03:48:24.050Z,1888.00
2019-05-23T03:49:24.027Z,1904.00
2019-05-23T03:50:24.034Z,1912.00
2019-05-23T03:51:24.006Z,1920.00
2019-05-23T03:52:23.997Z,1948.00
2019-05-23T03:53:23.996Z,1972.00
2019-05-23T03:54:23.979Z,1996.00
2019-05-23T03:55:24.059Z,2004.00
2019-05-23T03:56:23.946Z,2016.00
2019-05-23T03:57:25.828Z,2032.00
2019-05-23T03:58:23.926Z,2064.00
2019-05-23T03:59:23.944Z,2100.00
2019-05-23T04:00:23.908Z,2128.00
2019-05-23T04:01:23.899Z,2144.00
2019-05-23T04:02:23.891Z,2172.00
2019-05-23T04:03:23.887Z,2200.00
2019-05-23T04:04:23.914Z,2236.00
2019-05-23T04:05:23.872Z,2260.00
2019-05-23T04:06:23.840Z,2276.00
2019-05-23T04:07:23.833Z,2276.00
2019-05-23T04:08:23.824Z,2276.00
2019-05-23T04:09:23.811Z,2280.00
2019-05-23T04:10:23.819Z,2308.00
2019-05-23T04:11:23.785Z,2332.00
2019-05-23T04:12:23.905Z,2368.00
2019-05-23T04:13:23.801Z,2408.00
2019-05-23T04:14:23.753Z,2460.00
2019-05-23T04:15:23.748Z,2512.00
2019-05-23T04:16:23.735Z,2560.00
2019-05-23T04:17:23.729Z,2604.00
2019-05-23T04:18:23.716Z,2648.00
2019-05-23T04:19:23.716Z,2684.00
2019-05-23T04:20:23.689Z,2732.00
2019-05-23T04:21:23.685Z,2800.00
2019-05-23T04:22:23.677Z,2888.00
2019-05-23T04:23:23.657Z,2988.00
2019-05-23T04:24:23.640Z,3120.00
2019-05-23T04:25:23.630Z,3308.00
2019-05-23T04:26:23.627Z,3444.00
2019-05-23T04:27:23.609Z,3432.00
2019-05-23T04:28:23.625Z,3508.00
2019-05-23T04:29:23.650Z,3664.00
2019-05-23T04:30:23.575Z,3972.00
2019-05-23T04:31:23.563Z,6404.00
2019-05-23T04:32:23.558Z,10952.00
2019-05-23T04:33:23.540Z,12056.00
2019-05-23T04:34:23.536Z,11524.00
2019-05-23T04:35:23.538Z,11176.00
2019-05-23T04:36:23.613Z,11728.00
2019-05-23T04:37:23.499Z,11892.00
2019-05-23T04:38:23.515Z,11748.00
2019-05-23T04:39:23.507Z,11284.00
2019-05-23T04:40:23.480Z,11148.00
2019-05-23T04:41:23.479Z,11944.00
2019-05-23T04:42:23.442Z,13924.00
2019-05-23T04:43:23.441Z,15392.00
2019-05-23T04:44:23.428Z,16000.00
2019-05-23T04:45:23.407Z,16256.00
2019-05-23T04:46:23.389Z,16192.00
2019-05-23T04:47:23.406Z,16416.00
2019-05-23T04:48:23.396Z,16768.00
2019-05-23T04:49:23.369Z,17056.00
2019-05-23T04:50:23.353Z,17152.00
2019-05-23T04:51:23.349Z,17632.00
2019-05-23T04:52:23.329Z,17344.00
2019-05-23T04:53:23.327Z,17152.00
2019-05-23T04:54:23.325Z,17696.00
2019-05-23T04:55:23.305Z,18080.00
2019-05-23T04:56:23.285Z,18144.00
2019-05-23T04:57:23.356Z,17984.00
2019-05-23T04:58:23.263Z,18752.00
2019-05-23T04:59:23.259Z,18848.00
2019-05-23T05:00:23.256Z,18432.00
2019-05-23T05:01:23.229Z,18720.00
2019-05-23T05:02:26.736Z,18944.00
2019-05-23T05:03:23.225Z,19200.00
2019-05-23T05:04:23.230Z,19584.00
2019-05-23T05:05:23.201Z,20192.00
2019-05-23T05:06:23.174Z,20224.00
2019-05-23T05:07:23.171Z,21120.00
2019-05-23T05:08:23.165Z,20320.00
2019-05-23T05:09:23.161Z,20576.00
2019-05-23T05:10:23.137Z,20352.00
2019-05-23T05:11:23.120Z,20256.00
2019-05-23T05:12:23.124Z,19520.00
2019-05-23T05:13:23.091Z,17472.00
2019-05-23T05:14:23.085Z,16096.00
2019-05-23T05:15:23.091Z,15488.00
2019-05-23T05:16:23.064Z,15296.00
2019-05-23T05:17:23.118Z,15488.00
2019-05-23T05:18:23.036Z,16384.00
2019-05-23T05:19:23.050Z,18176.00
2019-05-23T05:20:23.968Z,19968.00
2019-05-23T05:21:23.010Z,21184.00
2019-05-23T05:22:22.993Z,21408.00
2019-05-23T05:23:22.989Z,20896.00
2019-05-23T05:24:22.975Z,21376.00
2019-05-23T05:25:22.962Z,21088.00
2019-05-23T05:26:22.953Z,20960.00
2019-05-23T05:27:22.939Z,21376.00
2019-05-23T05:28:22.926Z,21664.00
2019-05-23T05:29:22.914Z,21600.00
2019-05-23T05:30:22.910Z,21344.00
2019-05-23T05:31:22.936Z,21056.00
2019-05-23T05:32:22.902Z,21568.00
2019-05-23T05:33:22.874Z,21568.00
2019-05-23T05:34:22.889Z,21248.00
2019-05-23T05:35:22.943Z,21216.00
2019-05-23T05:36:22.835Z,21248.00
2019-05-23T05:37:22.930Z,20704.00
2019-05-23T05:38:22.809Z,19200.00
2019-05-23T05:39:22.797Z,16032.00
2019-05-23T05:40:22.789Z,13144.00
2019-05-23T05:41:22.820Z,12596.00
2019-05-23T05:42:22.791Z,12372.00
2019-05-23T05:43:22.758Z,11984.00
2019-05-23T05:44:22.754Z,11684.00
2019-05-23T05:45:22.735Z,11424.00
2019-05-23T05:46:22.732Z,11012.00
2019-05-23T05:47:22.717Z,10736.00
2019-05-23T05:48:22.723Z,10396.00
2019-05-23T05:49:22.701Z,10176.00
2019-05-23T05:50:22.673Z,10040.00
2019-05-23T05:51:22.667Z,9588.00
2019-05-23T05:52:22.654Z,9372.00
2019-05-23T05:53:22.640Z,9160.00
2019-05-23T05:54:22.651Z,8972.00
2019-05-23T05:55:22.641Z,8832.00
2019-05-23T05:56:22.620Z,8580.00
2019-05-23T05:57:22.654Z,8432.00
2019-05-23T05:58:22.691Z,8588.00
2019-05-23T05:59:22.589Z,8296.00
2019-05-23T06:00:22.575Z,8032.00
2019-05-23T06:01:33.460Z,7960.00
2019-05-23T06:02:23.591Z,7928.00
2019-05-23T06:03:22.561Z,7828.00
2019-05-23T06:04:22.522Z,7720.00
2019-05-23T06:05:22.512Z,7660.00
2019-05-23T06:06:22.498Z,7732.00
2019-05-23T06:07:22.503Z,8172.00
2019-05-23T06:08:22.488Z,8624.00
2019-05-23T06:09:22.457Z,7792.00
2019-05-23T06:10:22.445Z,7492.00
2019-05-23T06:11:22.442Z,8120.00
2019-05-23T06:12:22.435Z,8200.00
2019-05-23T06:13:22.433Z,7640.00
2019-05-23T06:14:22.405Z,7752.00
2019-05-23T06:15:22.393Z,7660.00
2019-05-23T06:16:22.394Z,8316.00
2019-05-23T06:17:22.371Z,8108.00
2019-05-23T06:18:22.366Z,7908.00
2019-05-23T06:19:22.351Z,7864.00
2019-05-23T06:20:22.337Z,7896.00
2019-05-23T06:21:22.346Z,7620.00
2019-05-23T06:22:22.314Z,7516.00
2019-05-23T06:23:22.317Z,7540.00
2019-05-23T06:24:38.934Z,7716.00
2019-05-23T06:25:23.290Z,7780.00
2019-05-23T06:26:22.298Z,7628.00
2019-05-23T06:27:22.257Z,7688.00
2019-05-23T06:28:22.307Z,7808.00
2019-05-23T06:29:22.703Z,7760.00
2019-05-23T06:30:22.226Z,8092.00
2019-05-23T06:31:22.235Z,8120.00
2019-05-23T06:32:22.225Z,7612.00
2019-05-23T06:33:24.066Z,7204.00
2019-05-23T06:34:22.296Z,7044.00
2019-05-23T06:35:22.179Z,6884.00
2019-05-23T06:36:22.160Z,6836.00
2019-05-23T06:37:22.322Z,6848.00
2019-05-23T06:38:22.163Z,6836.00
2019-05-23T06:39:22.130Z,6860.00
2019-05-23T06:40:22.129Z,6856.00
2019-05-23T06:41:22.135Z,6836.00
2019-05-23T06:42:22.094Z,6868.00
2019-05-23T06:43:22.093Z,6904.00
2019-05-23T06:44:22.072Z,6808.00
2019-05-23T06:45:22.057Z,6852.00
2019-05-23T06:46:22.070Z,6900.00
2019-05-23T06:47:22.047Z,6848.00
2019-05-23T06:48:22.023Z,6680.00
2019-05-23T06:49:22.014Z,6672.00
2019-05-23T06:50:22.008Z,6596.00
2019-05-23T06:51:22.025Z,6624.00
2019-05-23T06:52:21.990Z,6604.00
2019-05-23T06:53:22.001Z,6588.00
2019-05-23T06:54:21.970Z,6592.00
2019-05-23T06:55:21.946Z,6592.00
2019-05-23T06:56:21.937Z,6756.00
2019-05-23T06:57:21.931Z,6608.00
2019-05-23T06:58:22.852Z,6844.00
2019-05-23T06:59:21.924Z,6228.00
2019-05-23T07:00:21.891Z,6188.00
2019-05-23T07:01:21.890Z,6232.00
2019-05-23T07:02:21.870Z,6380.00
2019-05-23T07:03:21.872Z,6564.00
2019-05-23T07:04:21.850Z,6900.00
2019-05-23T07:05:21.882Z,6840.00
2019-05-23T07:06:21.851Z,6640.00
2019-05-23T07:07:21.812Z,6620.00
2019-05-23T07:08:25.178Z,6764.00
2019-05-23T07:09:21.799Z,6880.00
2019-05-23T07:10:21.795Z,6964.00
2019-05-23T07:11:21.780Z,7308.00
2019-05-23T07:12:21.761Z,7476.00
2019-05-23T07:13:21.747Z,7208.00
2019-05-23T07:14:21.756Z,7196.00
2019-05-23T07:15:21.729Z,7452.00
2019-05-23T07:16:21.710Z,7424.00
2019-05-23T07:17:21.723Z,7460.00
2019-05-23T07:18:21.700Z,7416.00
2019-05-23T07:19:21.676Z,7468.00
2019-05-23T07:20:21.675Z,7644.00
2019-05-23T07:21:21.661Z,7636.00
2019-05-23T07:22:21.648Z,7640.00
2019-05-23T07:23:21.661Z,7784.00
2019-05-23T07:24:21.625Z,8168.00
2019-05-23T07:25:21.638Z,8516.00
2019-05-23T07:26:21.605Z,8996.00
2019-05-23T07:27:21.600Z,8796.00
2019-05-23T07:28:21.586Z,8728.00
2019-05-23T07:29:21.572Z,8776.00
2019-05-23T07:30:21.583Z,8440.00
2019-05-23T07:31:21.563Z,8528.00
2019-05-23T07:32:21.543Z,8816.00
2019-05-23T07:33:21.543Z,8440.00
2019-05-23T07:34:21.519Z,8120.00
2019-05-23T07:35:21.510Z,7816.00
2019-05-23T07:36:21.503Z,8296.00
2019-05-23T07:37:21.479Z,8212.00
2019-05-23T07:38:21.493Z,9072.00
2019-05-23T07:39:21.458Z,10256.00
2019-05-23T07:40:21.455Z,11084.00
2019-05-23T07:41:21.536Z,10500.00
2019-05-23T07:42:21.425Z,9744.00
2019-05-23T07:43:21.546Z,9948.00
2019-05-23T07:44:21.427Z,9584.00
2019-05-23T07:45:21.561Z,10056.00
2019-05-23T07:46:21.382Z,10260.00
2019-05-23T07:47:21.374Z,10964.00
2019-05-23T07:48:21.380Z,11792.00
2019-05-23T07:49:21.348Z,11372.00
2019-05-23T07:50:21.373Z,11492.00
2019-05-23T07:51:21.343Z,10644.00
2019-05-23T07:52:21.311Z,11148.00
2019-05-23T07:53:21.301Z,10816.00
2019-05-23T07:54:21.296Z,11144.00
2019-05-23T07:55:21.281Z,11952.00
2019-05-23T07:56:21.290Z,11248.00
2019-05-23T07:57:21.252Z,10664.00
2019-05-23T07:58:21.262Z,10292.00
2019-05-23T07:59:21.236Z,9660.00
2019-05-23T08:00:21.228Z,8792.00
2019-05-23T08:01:21.212Z,8508.00
2019-05-23T08:02:25.521Z,9032.00
2019-05-23T08:03:21.223Z,9460.00
2019-05-23T08:04:22.465Z,9528.00
2019-05-23T08:05:21.173Z,9660.00
2019-05-23T08:06:21.166Z,9920.00
2019-05-23T08:07:21.142Z,9372.00
2019-05-23T08:08:21.126Z,9160.00
2019-05-23T08:09:21.145Z,9268.00
2019-05-23T08:10:33.158Z,9508.00
2019-05-23T08:11:22.096Z,9732.00
2019-05-23T08:12:21.085Z,10184.00
2019-05-23T08:13:21.084Z,10060.00
2019-05-23T08:14:21.066Z,10200.00
2019-05-23T08:15:21.051Z,9988.00
2019-05-23T08:16:21.050Z,8580.00
2019-05-23T08:17:21.047Z,7700.00
2019-05-23T08:18:21.080Z,7400.00
2019-05-23T08:19:21.017Z,8808.00
2019-05-23T08:20:20.987Z,8532.00
2019-05-23T08:21:20.992Z,9304.00
2019-05-23T08:22:20.967Z,9228.00
2019-05-23T08:23:20.958Z,8512.00
2019-05-23T08:24:20.952Z,7996.00
2019-05-23T08:25:20.944Z,7684.00
2019-05-23T08:26:20.945Z,7788.00
2019-05-23T08:27:20.912Z,7472.00
2019-05-23T08:28:20.906Z,7212.00
2019-05-23T08:29:27.991Z,7028.00
2019-05-23T08:30:21.879Z,6948.00
2019-05-23T08:31:20.864Z,6952.00
2019-05-23T08:32:20.858Z,6944.00
2019-05-23T08:33:20.849Z,6928.00
2019-05-23T08:34:37.846Z,6948.00
2019-05-23T08:35:21.827Z,7008.00
2019-05-23T08:36:20.818Z,6980.00
2019-05-23T08:37:20.802Z,7088.00
2019-05-23T08:38:20.788Z,7480.00
2019-05-23T08:39:20.781Z,7696.00
2019-05-23T08:40:20.768Z,7880.00
2019-05-23T08:41:20.771Z,7720.00
2019-05-23T08:42:20.740Z,7428.00
2019-05-23T08:43:20.735Z,7244.00
2019-05-23T08:44:20.734Z,7060.00
2019-05-23T08:45:20.705Z,6740.00
2019-05-23T08:46:20.700Z,6880.00
2019-05-23T08:47:20.690Z,7208.00
2019-05-23T08:48:20.694Z,7560.00
2019-05-23T08:49:20.678Z,8108.00
2019-05-23T08:50:20.678Z,8704.00
2019-05-23T08:51:20.662Z,9368.00
2019-05-23T08:52:20.639Z,9476.00
2019-05-23T08:53:20.613Z,8804.00
2019-05-23T08:54:20.606Z,8088.00
2019-05-23T08:55:20.611Z,7744.00
2019-05-23T08:56:20.583Z,7832.00
2019-05-23T08:57:20.598Z,7884.00
2019-05-23T08:58:20.583Z,7892.00
2019-05-23T08:59:20.549Z,8008.00
2019-05-23T09:00:20.597Z,7968.00
2019-05-23T09:01:20.537Z,7992.00
2019-05-23T09:02:20.511Z,7988.00
2019-05-23T09:03:20.497Z,8012.00
2019-05-23T09:04:20.511Z,8000.00
2019-05-23T09:05:20.495Z,7976.00
2019-05-23T09:06:20.471Z,7912.00
2019-05-23T09:07:20.501Z,7880.00
2019-05-23T09:08:20.448Z,7912.00
2019-05-23T09:09:29.738Z,7916.00
2019-05-23T09:10:21.426Z,7900.00
2019-05-23T09:11:20.411Z,7884.00
2019-05-23T09:12:20.407Z,7820.00
2019-05-23T09:13:20.409Z,7864.00
2019-05-23T09:14:20.394Z,7864.00
2019-05-23T09:15:20.377Z,7832.00
2019-05-23T09:16:20.351Z,7832.00
2019-05-23T09:17:20.344Z,7824.00
2019-05-23T09:18:20.337Z,7780.00
2019-05-23T09:19:20.351Z,7764.00
2019-05-23T09:20:20.305Z,7788.00
2019-05-23T09:21:20.300Z,7744.00
2019-05-23T09:22:20.289Z,7708.00
2019-05-23T09:23:20.291Z,7668.00
2019-05-23T09:24:20.264Z,7588.00
2019-05-23T09:25:20.248Z,7528.00
2019-05-23T09:26:20.241Z,7436.00
2019-05-23T09:27:20.231Z,7376.00
2019-05-23T09:28:20.217Z,7328.00
2019-05-23T09:29:20.249Z,7272.00
2019-05-23T09:30:20.197Z,7204.00
2019-05-23T09:31:20.178Z,7184.00
2019-05-23T09:32:20.184Z,7172.00
2019-05-23T09:33:20.170Z,7136.00
2019-05-23T09:34:20.149Z,7108.00
2019-05-23T09:35:22.178Z,7036.00
2019-05-23T09:36:20.126Z,7032.00
2019-05-23T09:37:20.161Z,7000.00
2019-05-23T09:38:20.116Z,7048.00
2019-05-23T09:39:20.115Z,7032.00
2019-05-23T09:40:20.100Z,7028.00
2019-05-23T09:41:20.069Z,6960.00
2019-05-23T09:42:20.057Z,6848.00
2019-05-23T09:43:20.047Z,6828.00
2019-05-23T09:44:20.053Z,6920.00
2019-05-23T09:45:20.026Z,6968.00
2019-05-23T09:46:20.013Z,6960.00
2019-05-23T09:47:20.113Z,7152.00
2019-05-23T09:48:19.987Z,7152.00
2019-05-23T09:49:19.982Z,7152.00
2019-05-23T09:50:20.010Z,7160.00
2019-05-23T09:51:19.982Z,7176.00
2019-05-23T09:52:19.943Z,7144.00
2019-05-23T09:53:19.933Z,7156.00
2019-05-23T09:54:19.920Z,7176.00
2019-05-23T09:55:19.914Z,7196.00
2019-05-23T09:56:19.896Z,7232.00
2019-05-23T09:57:19.921Z,7256.00
2019-05-23T09:58:19.872Z,7284.00
2019-05-23T09:59:19.865Z,7308.00
2019-05-23T10:00:19.853Z,7348.00
2019-05-23T10:01:19.968Z,7372.00
2019-05-23T10:02:19.852Z,7424.00
2019-05-23T10:03:19.817Z,7516.00
2019-05-23T10:04:19.835Z,7592.00
2019-05-23T10:05:40.194Z,7660.00
2019-05-23T10:06:20.783Z,7708.00
2019-05-23T10:07:19.780Z,7708.00
2019-05-23T10:08:19.764Z,7764.00
2019-05-23T10:09:19.756Z,7800.00
2019-05-23T10:10:19.734Z,7836.00
2019-05-23T10:11:19.729Z,7892.00
2019-05-23T10:12:22.446Z,7968.00
2019-05-23T10:13:36.048Z,8028.00
2019-05-23T10:14:20.703Z,8116.00
2019-05-23T10:15:19.684Z,8156.00
2019-05-23T10:16:19.664Z,8184.00
2019-05-23T10:17:19.686Z,8224.00
2019-05-23T10:18:19.655Z,8268.00
2019-05-23T10:19:19.634Z,8344.00
2019-05-23T10:20:19.623Z,8404.00
2019-05-23T10:21:19.615Z,8476.00
2019-05-23T10:22:19.599Z,8532.00
2019-05-23T10:23:19.597Z,8568.00
2019-05-23T10:24:19.628Z,8616.00
2019-05-23T10:25:19.599Z,8712.00
2019-05-23T10:26:19.557Z,8776.00
2019-05-23T10:27:19.546Z,8816.00
2019-05-23T10:28:19.532Z,8896.00
2019-05-23T10:29:19.523Z,8960.00
2019-05-23T10:30:19.509Z,9020.00
2019-05-23T10:31:19.495Z,9120.00
2019-05-23T10:32:19.504Z,9196.00
2019-05-23T10:33:19.499Z,9272.00
2019-05-23T10:34:19.467Z,9368.00
2019-05-23T10:35:19.468Z,9452.00
2019-05-23T10:36:19.459Z,9532.00
2019-05-23T10:37:19.519Z,9592.00
2019-05-23T10:38:19.423Z,9636.00
2019-05-23T10:39:19.409Z,9448.00
2019-05-23T10:40:19.417Z,9292.00
2019-05-23T10:41:19.398Z,9376.00
2019-05-23T10:42:19.378Z,9612.00
2019-05-23T10:43:19.362Z,9788.00
2019-05-23T10:44:19.364Z,9720.00
2019-05-23T10:45:19.337Z,9892.00
2019-05-23T10:46:19.360Z,9876.00
2019-05-23T10:47:19.315Z,9968.00
2019-05-23T10:48:19.325Z,9924.00
2019-05-23T10:49:19.300Z,9956.00
2019-05-23T10:50:19.285Z,10008.00
2019-05-23T10:51:19.293Z,10024.00
2019-05-23T10:52:19.271Z,10112.00
2019-05-23T10:53:19.306Z,10184.00
2019-05-23T10:54:19.303Z,10192.00
2019-05-23T10:55:19.254Z,10196.00
2019-05-23T10:56:20.580Z,10176.00
2019-05-23T10:57:19.204Z,10164.00
2019-05-23T10:58:19.236Z,10180.00
2019-05-23T10:59:19.226Z,10180.00
2019-05-23T11:00:19.173Z,10164.00
2019-05-23T11:01:19.160Z,10216.00
2019-05-23T11:02:19.154Z,10312.00
2019-05-23T11:03:19.185Z,10340.00
2019-05-23T11:04:19.130Z,10380.00
2019-05-23T11:05:19.120Z,10380.00
2019-05-23T11:06:19.105Z,10412.00
2019-05-23T11:07:19.094Z,10420.00
2019-05-23T11:08:19.094Z,10488.00
2019-05-23T11:09:36.193Z,10516.00
2019-05-23T11:10:20.065Z,10544.00
2019-05-23T11:11:19.072Z,10552.00
2019-05-23T11:12:19.036Z,10572.00
2019-05-23T11:13:19.034Z,10204.00
2019-05-23T11:14:19.025Z,10564.00
2019-05-23T11:15:19.026Z,10576.00
2019-05-23T11:16:18.997Z,10572.00
2019-05-23T11:17:18.975Z,10604.00
2019-05-23T11:18:18.988Z,10620.00
2019-05-23T11:19:18.958Z,10644.00
2019-05-23T11:20:18.952Z,10668.00
2019-05-23T11:21:18.946Z,10668.00
2019-05-23T11:22:18.922Z,10680.00
2019-05-23T11:23:18.937Z,10712.00
2019-05-23T11:24:18.899Z,10740.00
2019-05-23T11:25:18.905Z,10732.00
2019-05-23T11:26:18.888Z,10756.00
2019-05-23T11:27:18.874Z,10792.00
2019-05-23T11:28:18.856Z,10792.00
2019-05-23T11:29:18.868Z,10812.00
2019-05-23T11:30:18.841Z,10820.00
2019-05-23T11:31:18.857Z,10824.00
2019-05-23T11:32:20.171Z,10848.00
2019-05-23T11:33:18.805Z,10880.00
2019-05-23T11:34:18.811Z,10916.00
2019-05-23T11:35:18.817Z,10920.00
2019-05-23T11:36:33.914Z,10956.00
2019-05-23T11:37:19.754Z,10940.00
2019-05-23T11:38:18.747Z,10932.00
2019-05-23T11:39:18.726Z,10936.00
2019-05-23T11:40:18.720Z,10944.00
2019-05-23T11:41:18.764Z,10996.00
2019-05-23T11:42:18.720Z,11056.00
2019-05-23T11:43:18.702Z,11116.00
2019-05-23T11:44:18.677Z,11132.00
2019-05-23T11:45:18.668Z,11128.00
2019-05-23T11:46:18.654Z,11136.00
2019-05-23T11:47:18.644Z,11188.00
2019-05-23T11:48:18.640Z,11220.00
2019-05-23T11:49:18.642Z,11244.00
2019-05-23T11:50:18.609Z,11252.00
2019-05-23T11:51:18.603Z,11308.00
2019-05-23T11:52:18.590Z,11376.00
2019-05-23T11:53:18.607Z,11428.00
2019-05-23T11:54:18.562Z,11472.00
2019-05-23T11:55:18.556Z,11492.00
2019-05-23T11:56:18.549Z,11496.00
2019-05-23T11:57:18.562Z,11496.00
2019-05-23T11:58:18.524Z,11476.00
2019-05-23T11:59:18.653Z,11512.00
2019-05-23T12:00:18.787Z,11548.00
2019-05-23T12:01:21.311Z,11572.00
2019-05-23T12:02:18.480Z,11576.00
2019-05-23T12:03:18.487Z,11536.00
2019-05-23T12:04:18.452Z,11504.00
2019-05-23T12:05:18.444Z,11420.00
2019-05-23T12:06:18.487Z,11312.00
2019-05-23T12:07:18.417Z,11216.00
2019-05-23T12:08:18.405Z,11144.00
2019-05-23T12:09:18.490Z,11032.00
2019-05-23T12:10:18.441Z,10928.00
2019-05-23T12:11:18.369Z,10816.00
2019-05-23T12:12:18.367Z,10688.00
2019-05-23T12:13:18.351Z,10572.00
2019-05-23T12:14:18.341Z,10488.00
2019-05-23T12:15:18.332Z,10404.00
2019-05-23T12:16:18.334Z,10328.00